Time;durP1;ratioP1;P1;durP2;ratioP2;P2;SDS_P1;SDS_P2;PMS_P1;PMS_P2;Temp;Humidity;BMP_temperature;BMP_pressure;BME280_temperature;BME280_humidity;BME280_pressure;Samples;Min_cycle;Max_cycle;Signal;HPM_P1;HPM_P2
2022/11/19 00:00:19;;;;;;;2.95;1.70;;;0.70;99.90;;;;;;6216812;23;20009;-84
2022/11/19 00:02:44;;;;;;;3.90;1.80;;;0.70;99.90;;;;;;6190278;23;20402;-84
2022/11/19 00:05:10;;;;;;;2.83;1.58;;;0.70;99.90;;;;;;6216950;23;20021;-84
2022/11/19 00:07:36;;;;;;;4.45;2.30;;;2.10;99.90;;;;;;6189986;23;20016;-84
2022/11/19 00:10:02;;;;;;;3.90;1.95;;;0.60;99.90;;;;;;6216736;23;20048;-84
2022/11/19 00:15:11;;;;;;;5.68;1.45;;;1.20;99.90;;;;;;6216947;23;20027;-84
2022/11/19 00:17:37;;;;;;;5.55;2.08;;;0.60;99.90;;;;;;6216470;23;20331;-84
2022/11/19 00:20:03;;;;;;;3.40;1.73;;;0.60;99.90;;;;;;6190578;23;20482;-84
2022/11/19 00:22:28;;;;;;;5.07;2.15;;;0.50;99.90;;;;;;6216517;23;20088;-84
2022/11/19 00:24:54;;;;;;;2.65;1.60;;;0.50;99.90;;;;;;6216808;23;20099;-84
2022/11/19 00:27:20;;;;;;;4.70;1.58;;;0.50;99.90;;;;;;6190514;23;20020;-83
2022/11/19 00:29:45;;;;;;;3.35;1.80;;;0.50;99.90;;;;;;6216382;23;20451;-84
2022/11/19 00:32:11;;;;;;;4.18;2.15;;;0.70;99.90;;;;;;6216559;23;20020;-84
2022/11/19 00:34:36;;;;;;;3.20;1.50;;;0.40;99.90;;;;;;6216200;23;20059;-84
2022/11/19 00:37:02;;;;;;;4.07;2.20;;;0.40;99.90;;;;;;6216881;23;20012;-84
2022/11/19 00:39:28;;;;;;;6.43;2.15;;;1.00;99.90;;;;;;6216740;23;20323;-84
2022/11/19 00:41:53;;;;;;;4.65;1.70;;;1.10;99.90;;;;;;6216761;23;20374;-84
2022/11/19 00:44:19;;;;;;;5.28;2.33;;;0.20;99.90;;;;;;6189777;23;20341;-84
2022/11/19 00:46:44;;;;;;;4.07;2.00;;;0.80;99.90;;;;;;6189857;23;20351;-84
2022/11/19 00:49:10;;;;;;;4.53;2.35;;;0.10;99.90;;;;;;6189442;23;20016;-84
2022/11/19 00:51:36;;;;;;;4.57;2.30;;;0.10;99.90;;;;;;6216840;23;20059;-84
2022/11/19 00:54:01;;;;;;;4.63;2.03;;;0.10;99.90;;;;;;6216170;23;20021;-84
2022/11/19 00:56:27;;;;;;;3.80;1.98;;;0.10;99.90;;;;;;6216357;23;20028;-84
2022/11/19 00:58:54;;;;;;;5.50;2.50;;;0.10;99.90;;;;;;6216399;23;20012;-83
2022/11/19 01:01:21;;;;;;;7.43;2.30;;;0.10;99.90;;;;;;6216452;23;20021;-83
2022/11/19 01:03:47;;;;;;;4.43;2.22;;;0.10;99.90;;;;;;6216107;23;20017;-83
2022/11/19 01:06:15;;;;;;;3.83;2.20;;;0.00;99.90;;;;;;6216080;23;20024;-84
2022/11/19 01:08:41;;;;;;;3.85;2.05;;;0.10;99.90;;;;;;6189709;23;20429;-83
2022/11/19 01:11:13;;;;;;;3.67;1.92;;;-1.00;99.90;;;;;;6216205;23;20047;-84
2022/11/19 01:13:39;;;;;;;3.55;1.77;;;0.20;99.90;;;;;;6216367;23;20017;-84
2022/11/19 01:16:09;;;;;;;3.72;2.10;;;0.20;99.90;;;;;;6189393;23;20058;-84
2022/11/19 01:18:36;;;;;;;4.15;2.03;;;0.20;99.90;;;;;;6216404;23;20016;-84
2022/11/19 01:21:03;;;;;;;5.03;2.35;;;0.10;99.90;;;;;;6216238;23;20023;-83
2022/11/19 01:23:29;;;;;;;5.13;2.13;;;0.20;99.90;;;;;;6216308;23;20013;-84
2022/11/19 01:25:54;;;;;;;4.55;2.20;;;1.30;99.90;;;;;;6189311;23;20088;-83
2022/11/19 01:28:20;;;;;;;5.65;2.30;;;0.20;99.90;;;;;;6189625;23;20017;-84
2022/11/19 01:30:46;;;;;;;3.08;1.73;;;0.10;99.90;;;;;;6215435;23;20063;-84
2022/11/19 01:33:11;;;;;;;4.95;1.98;;;0.20;99.90;;;;;;6215824;23;20023;-83
2022/11/19 01:35:37;;;;;;;7.68;2.90;;;0.20;99.90;;;;;;6215516;23;20024;-83
2022/11/19 01:38:04;;;;;;;3.88;2.35;;;0.10;99.90;;;;;;6189308;23;20324;-83
2022/11/19 01:40:30;;;;;;;4.45;2.40;;;0.10;99.90;;;;;;6215917;23;20017;-83
2022/11/19 01:42:56;;;;;;;4.80;2.25;;;0.00;99.90;;;;;;6215774;23;20013;-83
2022/11/19 01:45:38;;;;;;;7.03;2.53;;;0.00;99.90;;;;;;6215953;23;20335;-83
2022/11/19 01:48:27;;;;;;;4.60;2.47;;;0.00;99.90;;;;;;6216113;23;20017;-83
2022/11/19 01:51:00;;;;;;;7.03;2.42;;;0.00;99.90;;;;;;6215996;23;20012;-83
2022/11/19 01:53:33;;;;;;;6.05;2.40;;;-0.10;99.90;;;;;;6215864;23;20017;-84
2022/11/19 01:56:02;;;;;;;5.63;2.30;;;-0.10;99.90;;;;;;6188982;23;20051;-84
2022/11/19 01:58:33;;;;;;;3.80;2.17;;;-0.10;99.90;;;;;;6189092;23;20017;-83
2022/11/19 02:00:58;;;;;;;4.45;2.28;;;-0.20;99.90;;;;;;6188700;23;20012;-83
2022/11/19 02:03:28;;;;;;;5.82;3.10;;;0.80;99.90;;;;;;6215467;23;20019;-84
2022/11/19 02:05:54;;;;;;;4.60;2.58;;;-1.00;99.90;;;;;;6189074;23;20017;-83
2022/11/19 02:08:41;;;;;;;3.17;1.80;;;-0.30;99.90;;;;;;6189495;23;20015;-83
2022/11/19 02:11:10;;;;;;;4.45;2.22;;;-0.30;99.90;;;;;;6215138;23;20013;-83
2022/11/19 02:14:16;;;;;;;4.70;2.20;;;-0.40;99.90;;;;;;6188711;23;20016;-84
2022/11/19 02:16:50;;;;;;;4.77;2.33;;;-0.40;99.90;;;;;;6216022;23;20020;-83
2022/11/19 02:19:49;;;;;;;3.53;1.80;;;-0.40;99.90;;;;;;6215913;23;20575;-84
2022/11/19 02:22:33;;;;;;;3.42;1.73;;;-0.50;99.90;;;;;;6215816;23;20016;-83
2022/11/19 02:25:10;;;;;;;5.20;1.98;;;-0.50;99.90;;;;;;6188252;23;20016;-84
2022/11/19 02:28:06;;;;;;;5.57;2.65;;;-0.60;99.90;;;;;;6215365;23;20108;-84
2022/11/19 02:30:48;;;;;;;3.50;1.90;;;-0.60;99.90;;;;;;6215725;23;20377;-84
2022/11/19 02:33:30;;;;;;;6.07;2.88;;;-0.60;99.90;;;;;;6215300;23;20340;-84
2022/11/19 02:36:08;;;;;;;3.90;2.45;;;-0.60;99.90;;;;;;6215511;23;20035;-83
2022/11/19 02:38:40;;;;;;;4.10;2.00;;;-0.60;99.90;;;;;;6215402;23;20017;-84
2022/11/19 02:41:34;;;;;;;6.47;2.65;;;-0.70;99.90;;;;;;6215723;23;20036;-83
2022/11/19 02:47:12;;;;;;;7.13;2.03;;;-0.70;99.90;;;;;;6065296;23;20019;-84
2022/11/19 02:49:45;;;;;;;5.85;2.55;;;0.50;99.90;;;;;;6041849;23;20061;-83
2022/11/19 02:52:13;;;;;;;4.22;2.67;;;-0.80;99.90;;;;;;6065466;23;20037;-84
2022/11/19 02:54:39;;;;;;;4.38;2.40;;;0.40;99.90;;;;;;6065624;23;20015;-83
2022/11/19 02:57:05;;;;;;;7.32;2.35;;;-0.90;99.90;;;;;;6041360;23;20027;-83
2022/11/19 03:05:07;;;;;;;;;;;-0.90;99.90;;;;;;6065638;23;20110;-83
2022/11/19 03:07:33;;;;;;;5.20;2.42;;;-1.00;99.90;;;;;;6041386;23;20041;-83
2022/11/19 03:10:03;;;;;;;4.97;2.20;;;-1.00;99.90;;;;;;6065568;23;20569;-83
2022/11/19 03:12:48;;;;;;;5.78;2.50;;;-0.10;99.90;;;;;;6065522;23;20038;-84
2022/11/19 03:18:43;;;;;;;4.93;2.08;;;-1.10;99.90;;;;;;6065353;23;20055;-83
2022/11/19 03:21:24;;;;;;;5.90;2.97;;;-1.10;99.90;;;;;;6049136;23;20018;-83
2022/11/19 03:24:19;;;;;;;4.53;1.70;;;-1.10;99.90;;;;;;6094467;23;20022;-84
2022/11/19 03:27:07;;;;;;;3.38;1.83;;;-1.10;99.90;;;;;;6086267;23;20097;-84
2022/11/19 03:29:36;;;;;;;4.18;2.25;;;-1.10;99.90;;;;;;6094307;23;20014;-84
2022/11/19 03:32:08;;;;;;;5.13;2.22;;;-1.10;99.90;;;;;;6094030;23;20019;-83
2022/11/19 03:34:36;;;;;;;5.40;2.40;;;-1.10;99.90;;;;;;6094246;23;20142;-83
2022/11/19 03:37:04;;;;;;;4.57;2.53;;;-1.20;99.90;;;;;;6095908;23;20026;-83
2022/11/19 03:39:33;;;;;;;6.05;2.40;;;-1.30;99.90;;;;;;6095917;23;20015;-83
2022/11/19 03:41:59;;;;;;;4.10;2.28;;;-1.10;99.90;;;;;;6096007;23;20158;-84
2022/11/19 03:44:32;;;;;;;3.38;1.85;;;-1.30;99.90;;;;;;6095939;23;20022;-83
2022/11/19 03:47:04;;;;;;;5.38;2.42;;;-1.30;99.90;;;;;;6095785;23;20481;-84
2022/11/19 03:49:35;;;;;;;5.28;2.40;;;-1.30;99.90;;;;;;6071723;23;20015;-83
2022/11/19 03:52:09;;;;;;;4.68;2.35;;;-1.30;99.90;;;;;;6095664;23;20023;-83
2022/11/19 03:54:36;;;;;;;5.60;2.50;;;-1.30;99.90;;;;;;6096063;23;20046;-83
2022/11/19 03:57:04;;;;;;;5.35;2.33;;;-1.30;99.90;;;;;;6142643;23;20023;-84
2022/11/19 03:59:30;;;;;;;8.00;2.03;;;-1.40;99.90;;;;;;6216908;23;20016;-83
2022/11/19 04:02:00;;;;;;;6.15;2.20;;;-1.40;99.90;;;;;;6216922;23;20087;-83
2022/11/19 04:04:36;;;;;;;4.13;2.25;;;-1.40;99.90;;;;;;6216555;23;20459;-83
2022/11/19 04:07:11;;;;;;;5.43;1.83;;;-1.40;99.90;;;;;;6190146;23;20452;-84
2022/11/19 04:09:38;;;;;;;4.95;2.10;;;-1.40;99.90;;;;;;6216945;23;20243;-83
2022/11/19 04:12:05;;;;;;;7.28;2.33;;;-1.40;99.90;;;;;;6217120;23;20044;-83
2022/11/19 04:14:31;;;;;;;4.55;1.80;;;-1.40;99.90;;;;;;6190203;23;20016;-83
2022/11/19 04:16:56;;;;;;;6.45;2.08;;;-1.50;99.90;;;;;;6190122;23;20020;-83
2022/11/19 04:19:22;;;;;;;4.45;2.20;;;-1.40;99.90;;;;;;6165649;23;20427;-84
2022/11/19 04:21:48;;;;;;;5.97;2.10;;;-1.40;99.90;;;;;;6216818;23;20023;-83
2022/11/19 04:24:15;;;;;;;7.60;2.05;;;-1.40;99.90;;;;;;6216308;23;20017;-84
2022/11/19 04:26:40;;;;;;;4.28;1.98;;;-1.40;99.90;;;;;;6189839;23;20021;-84
2022/11/19 04:29:06;;;;;;;6.93;2.10;;;-1.40;99.90;;;;;;6190047;23;20023;-84
2022/11/19 04:31:32;;;;;;;3.88;1.88;;;-1.40;99.90;;;;;;6216707;23;20016;-83
2022/11/19 04:33:58;;;;;;;4.10;1.85;;;-1.50;99.90;;;;;;6216141;23;20013;-83
2022/11/19 04:36:23;;;;;;;4.95;2.17;;;-1.50;99.90;;;;;;6216415;23;20024;-83
2022/11/19 04:38:49;;;;;;;4.32;1.77;;;-1.50;99.90;;;;;;6216574;23;20016;-83
2022/11/19 04:41:14;;;;;;;9.50;2.92;;;-1.50;99.90;;;;;;6216511;23;20024;-83
2022/11/19 04:43:40;;;;;;;6.72;2.17;;;-1.50;99.90;;;;;;6189315;23;20388;-83
2022/11/19 04:46:06;;;;;;;5.90;2.60;;;-1.50;99.90;;;;;;6216496;23;20458;-83
2022/11/19 04:48:32;;;;;;;11.15;2.03;;;-1.50;99.90;;;;;;6189549;23;20320;-83
2022/11/19 04:50:57;;;;;;;4.90;2.42;;;-1.50;99.90;;;;;;6216586;23;20016;-84
2022/11/19 04:53:23;;;;;;;4.93;2.30;;;-1.50;99.90;;;;;;6216148;23;20474;-83
2022/11/19 04:55:49;;;;;;;2.95;1.67;;;-1.50;99.90;;;;;;6216384;23;20020;-83
2022/11/19 04:58:14;;;;;;;5.07;1.80;;;-1.50;99.90;;;;;;6216410;23;20024;-83
2022/11/19 05:00:40;;;;;;;4.47;2.40;;;0.60;99.90;;;;;;6216012;23;20023;-83
2022/11/19 05:03:06;;;;;;;5.00;2.00;;;-0.10;99.90;;;;;;6215925;23;20451;-83
2022/11/19 05:05:31;;;;;;;8.05;2.17;;;-1.50;99.90;;;;;;6189496;23;20024;-83
2022/11/19 05:07:57;;;;;;;5.25;2.05;;;-1.50;99.90;;;;;;6216378;23;20020;-83
2022/11/19 05:10:23;;;;;;;3.58;1.88;;;-1.50;99.90;;;;;;6216572;23;20447;-83
2022/11/19 05:12:48;;;;;;;5.78;2.47;;;-1.50;99.90;;;;;;6216239;23;20023;-83
2022/11/19 05:15:14;;;;;;;2.90;1.50;;;-1.50;99.90;;;;;;6215707;23;20048;-84
2022/11/19 05:17:40;;;;;;;5.30;2.42;;;-1.60;99.90;;;;;;6216065;23;20019;-83
2022/11/19 05:20:06;;;;;;;5.68;2.58;;;-1.50;99.90;;;;;;6215879;23;20313;-83
2022/11/19 05:22:32;;;;;;;5.43;3.20;;;-1.50;99.90;;;;;;6216072;23;20017;-83
2022/11/19 05:24:57;;;;;;;5.65;2.83;;;-1.00;99.90;;;;;;6215986;23;20019;-83
2022/11/19 05:27:23;;;;;;;3.85;2.08;;;-1.50;99.90;;;;;;6216316;23;20021;-83
2022/11/19 05:29:49;;;;;;;8.48;2.40;;;-1.60;99.90;;;;;;6216403;23;20012;-84
2022/11/19 05:32:14;;;;;;;5.97;2.55;;;-1.50;99.90;;;;;;6215754;23;20023;-84
2022/11/19 05:34:40;;;;;;;6.45;2.90;;;-1.50;99.90;;;;;;6189216;23;20008;-83
2022/11/19 05:37:05;;;;;;;2.67;1.77;;;-1.50;99.90;;;;;;6216043;23;20343;-84
2022/11/19 05:39:31;;;;;;;4.10;2.15;;;-1.60;99.90;;;;;;6216053;23;20412;-83
2022/11/19 05:41:57;;;;;;;8.18;2.95;;;-1.60;99.90;;;;;;6189200;23;20429;-84
2022/11/19 05:44:22;;;;;;;6.90;2.25;;;-1.60;99.90;;;;;;6189639;23;20048;-83
2022/11/19 05:46:48;;;;;;;4.05;1.77;;;-1.60;99.90;;;;;;6215794;23;20020;-83
2022/11/19 05:49:13;;;;;;;4.78;2.20;;;-1.20;99.90;;;;;;6189383;23;20435;-83
2022/11/19 05:51:39;;;;;;;4.40;2.28;;;-1.70;99.90;;;;;;6215446;23;20020;-83
2022/11/19 05:54:05;;;;;;;6.25;2.55;;;-1.70;99.90;;;;;;6215890;23;20021;-83
2022/11/19 05:56:30;;;;;;;3.17;1.98;;;-1.70;99.90;;;;;;6215515;23;20051;-83
2022/11/19 05:58:56;;;;;;;4.03;2.50;;;-1.70;99.90;;;;;;6215920;23;20016;-83
2022/11/19 06:01:26;;;;;;;6.40;3.10;;;-1.70;99.90;;;;;;6216035;23;20017;-83
2022/11/19 06:03:52;;;;;;;5.47;2.15;;;-1.70;99.90;;;;;;6188921;23;20024;-84
2022/11/19 06:06:18;;;;;;;4.28;1.63;;;-1.70;99.90;;;;;;6215113;23;20017;-83
2022/11/19 06:08:43;;;;;;;2.28;1.70;;;-1.80;99.90;;;;;;6215664;23;20016;-83
2022/11/19 06:11:46;;;;;;;5.07;2.58;;;-1.80;99.90;;;;;;6215905;23;20331;-83
2022/11/19 06:14:00;;;;;;;4.03;2.03;;;-1.80;99.90;;;;;;6215771;23;20032;-83
2022/11/19 06:16:26;;;;;;;4.75;2.15;;;-1.80;99.90;;;;;;6188851;23;20012;-83
2022/11/19 06:18:52;;;;;;;6.35;2.17;;;-1.70;99.90;;;;;;6215836;23;20009;-83
2022/11/19 06:21:18;;;;;;;3.90;1.88;;;-1.70;99.90;;;;;;6215670;23;20397;-83
2022/11/19 06:23:43;;;;;;;4.30;1.90;;;-0.80;99.90;;;;;;6215423;23;20340;-83
2022/11/19 06:26:09;;;;;;;3.05;1.92;;;-1.80;99.90;;;;;;6215293;23;20020;-83
2022/11/19 06:28:35;;;;;;;5.63;2.58;;;-1.70;99.90;;;;;;6215562;23;20020;-83
2022/11/19 06:31:01;;;;;;;4.82;2.38;;;-1.70;99.90;;;;;;6215959;23;20016;-83
2022/11/19 06:33:26;;;;;;;5.03;2.25;;;-2.10;99.90;;;;;;6215765;23;20116;-83
2022/11/19 06:35:52;;;;;;;5.22;1.95;;;-1.70;99.90;;;;;;6215096;23;20025;-83
2022/11/19 06:38:17;;;;;;;4.75;2.50;;;-1.70;99.90;;;;;;6215556;23;20072;-83
2022/11/19 06:40:46;;;;;;;5.07;2.58;;;-1.70;99.90;;;;;;6215337;23;20027;-83
2022/11/19 06:43:12;;;;;;;3.65;1.75;;;-1.80;99.90;;;;;;6215852;23;20017;-83
2022/11/19 06:45:37;;;;;;;3.78;1.70;;;-1.80;99.90;;;;;;6215322;23;20013;-83
2022/11/19 06:48:04;;;;;;;4.97;1.85;;;-1.90;99.90;;;;;;6215218;23;20440;-82
2022/11/19 06:50:30;;;;;;;4.85;2.10;;;-1.90;99.90;;;;;;6215793;23;20083;-83
2022/11/19 06:52:55;;;;;;;4.60;2.25;;;-2.00;99.90;;;;;;6215223;23;20012;-83
2022/11/19 06:55:21;;;;;;;2.42;1.52;;;-2.00;99.90;;;;;;6188677;23;20448;-83
2022/11/19 06:57:47;;;;;;;6.32;2.17;;;-2.00;99.90;;;;;;6188108;23;20017;-83
2022/11/19 07:00:13;;;;;;;3.75;1.73;;;-1.90;99.90;;;;;;6215126;23;20013;-82
2022/11/19 07:02:39;;;;;;;4.22;1.67;;;-2.00;99.90;;;;;;6215289;23;20090;-82
2022/11/19 07:05:06;;;;;;;3.65;1.65;;;-2.00;99.90;;;;;;6215283;23;20021;-83
2022/11/19 07:07:32;;;;;;;4.57;1.80;;;-2.00;99.90;;;;;;6215382;23;20052;-83
2022/11/19 07:09:58;;;;;;;4.85;2.03;;;-1.90;99.90;;;;;;6215320;23;20016;-82
2022/11/19 07:12:24;;;;;;;4.10;1.80;;;-1.90;99.90;;;;;;6190868;23;20016;-82
2022/11/19 07:14:49;;;;;;;4.03;1.80;;;-2.00;99.90;;;;;;6217249;23;20074;-82
2022/11/19 07:17:15;;;;;;;4.32;1.77;;;-2.00;99.90;;;;;;6217162;23;20020;-83
2022/11/19 07:19:41;;;;;;;3.67;1.80;;;-2.00;99.90;;;;;;6217143;23;20355;-82
2022/11/19 07:22:06;;;;;;;4.47;2.03;;;-2.00;99.90;;;;;;6216987;23;20017;-82
2022/11/19 07:24:32;;;;;;;3.03;1.30;;;-2.10;99.90;;;;;;6217224;23;20013;-82
2022/11/19 07:26:58;;;;;;;3.58;1.63;;;-2.10;99.90;;;;;;6190627;23;20063;-82
2022/11/19 07:29:23;;;;;;;6.18;2.20;;;-2.10;99.90;;;;;;6190245;23;20023;-82
2022/11/19 07:31:49;;;;;;;4.88;1.52;;;-2.10;99.90;;;;;;6216913;23;20016;-82
2022/11/19 07:34:16;;;;;;;4.05;1.95;;;-2.10;99.90;;;;;;6216840;23;20102;-82
2022/11/19 07:36:42;;;;;;;4.57;2.03;;;-2.10;99.90;;;;;;6165448;23;20293;-82
2022/11/19 07:39:08;;;;;;;3.08;1.42;;;-2.10;99.90;;;;;;6216918;23;20063;-82
2022/11/19 07:44:18;;;;;;;3.95;1.77;;;-2.10;99.90;;;;;;6217010;23;20069;-82
2022/11/19 07:46:44;;;;;;;3.28;1.70;;;-2.00;99.90;;;;;;6217150;23;20039;-83
2022/11/19 07:49:10;;;;;;;4.35;1.80;;;-2.00;99.90;;;;;;6217285;23;20444;-82
2022/11/19 07:51:35;;;;;;;6.45;2.53;;;-2.10;99.90;;;;;;6217258;23;20079;-83
2022/11/19 07:54:01;;;;;;;2.80;1.70;;;-2.00;99.90;;;;;;6216907;23;20013;-83
2022/11/19 07:56:27;;;;;;;6.18;1.90;;;-2.10;99.90;;;;;;6217142;23;20020;-82
2022/11/19 07:58:52;;;;;;;3.55;1.85;;;-2.00;99.90;;;;;;6190152;23;20024;-83
2022/11/19 08:01:23;;;;;;;2.25;1.50;;;-1.90;99.90;;;;;;6190898;23;20020;-83
2022/11/19 08:03:50;;;;;;;5.28;1.60;;;-1.90;99.90;;;;;;6189960;23;20023;-82
2022/11/19 08:06:17;;;;;;;2.70;1.40;;;-1.90;99.90;;;;;;6217011;23;20414;-83
2022/11/19 08:08:43;;;;;;;4.60;1.92;;;-1.80;99.90;;;;;;6217016;23;20034;-83
2022/11/19 08:11:10;;;;;;;2.88;1.73;;;-1.80;99.90;;;;;;6216749;23;20020;-83
2022/11/19 08:13:38;;;;;;;4.53;2.00;;;-1.70;99.90;;;;;;6216798;23;20387;-82
2022/11/19 08:16:07;;;;;;;4.88;2.00;;;-1.60;99.90;;;;;;6216983;23;20365;-84
2022/11/19 08:18:33;;;;;;;3.10;1.77;;;-1.60;99.90;;;;;;6216380;23;20506;-83
2022/11/19 08:21:10;;;;;;;5.20;2.47;;;-1.50;99.90;;;;;;6216729;23;20055;-84
2022/11/19 08:23:37;;;;;;;3.85;2.03;;;-1.40;99.90;;;;;;6189929;23;20023;-87
2022/11/19 08:26:05;;;;;;;4.47;1.67;;;-1.30;99.90;;;;;;6216522;23;20016;-84
2022/11/19 08:28:31;;;;;;;5.05;2.30;;;-1.30;99.90;;;;;;6216065;23;20460;-83
2022/11/19 08:31:07;;;;;;;4.22;1.88;;;-0.30;99.90;;;;;;6216827;23;20039;-83
2022/11/19 08:33:33;;;;;;;4.43;1.95;;;-1.10;99.90;;;;;;6216088;23;20024;-83
2022/11/19 08:35:59;;;;;;;4.70;1.92;;;-1.10;99.90;;;;;;6216612;23;20111;-85
2022/11/19 08:38:24;;;;;;;3.40;1.80;;;-1.00;99.90;;;;;;6216609;23;20052;-84
2022/11/19 08:42:58;;;;;;;4.35;2.10;;;-0.90;99.90;;;;;;6216362;23;20419;-83
2022/11/19 08:43:39;;;;;;;5.38;2.30;;;-0.90;99.90;;;;;;6216139;23;20054;-83
2022/11/19 08:46:05;;;;;;;4.93;2.45;;;-0.80;99.90;;;;;;6216330;23;20035;-81
2022/11/19 08:48:31;;;;;;;4.63;2.30;;;-0.80;99.90;;;;;;6216698;23;20332;-82
2022/11/19 08:50:57;;;;;;;5.82;2.30;;;-0.70;99.90;;;;;;6215977;23;20505;-82
2022/11/19 08:53:23;;;;;;;8.35;2.88;;;-0.60;99.90;;;;;;6216522;23;20051;-82
2022/11/19 08:55:51;;;;;;;4.93;2.30;;;-0.60;99.90;;;;;;6216461;23;20013;-83
2022/11/19 08:58:17;;;;;;;5.03;2.10;;;-0.50;99.90;;;;;;6189658;23;20016;-82
2022/11/19 09:00:43;;;;;;;5.97;2.92;;;-0.50;99.90;;;;;;6189464;23;20013;-82
2022/11/19 09:03:09;;;;;;;5.03;2.65;;;-0.40;99.90;;;;;;6216015;23;20016;-82
2022/11/19 09:05:34;;;;;;;5.10;2.60;;;-0.40;99.90;;;;;;6215974;23;20016;-83
2022/11/19 09:08:00;;;;;;;7.07;2.90;;;-0.30;99.90;;;;;;6216209;23;20047;-83
2022/11/19 09:10:26;;;;;;;3.13;2.00;;;-0.30;99.90;;;;;;6189631;23;20023;-88
2022/11/19 09:12:52;;;;;;;8.65;2.90;;;-0.20;99.90;;;;;;6189717;23;20091;-83
2022/11/19 09:15:18;;;;;;;4.68;2.17;;;-0.20;99.90;;;;;;6215922;23;20435;-84
2022/11/19 09:17:44;;;;;;;5.68;2.45;;;-0.20;99.90;;;;;;6216165;23;20513;-83
2022/11/19 09:20:11;;;;;;;8.50;2.85;;;0.70;99.90;;;;;;6216366;23;20013;-86
2022/11/19 09:22:36;;;;;;;6.85;2.92;;;-0.10;99.90;;;;;;6164877;23;20024;-89
2022/11/19 09:25:03;;;;;;;4.72;2.33;;;0.00;99.90;;;;;;6216478;23;20020;-83
2022/11/19 09:27:29;;;;;;;4.88;2.20;;;0.00;99.90;;;;;;6216267;23;20087;-89
2022/11/19 09:29:54;;;;;;;5.38;2.65;;;0.10;99.90;;;;;;6216545;23;20021;-90
2022/11/19 09:32:20;;;;;;;4.15;2.50;;;0.10;99.90;;;;;;6215881;23;20019;-90
2022/11/19 09:34:46;;;;;;;4.35;2.20;;;0.20;99.90;;;;;;6216104;23;20009;-91
2022/11/19 09:37:11;;;;;;;5.63;2.67;;;0.20;99.90;;;;;;6216996;23;20416;-89
2022/11/19 09:39:37;;;;;;;4.72;2.38;;;0.30;99.90;;;;;;6215850;23;20009;-91
2022/11/19 09:42:25;;;;;;;8.02;3.08;;;1.40;99.90;;;;;;6217943;23;20389;-90
2022/11/19 09:45:09;;;;;;;5.38;2.40;;;0.40;99.90;;;;;;6216863;23;20068;-95
2022/11/19 09:47:49;;;;;;;5.80;3.15;;;0.40;99.90;;;;;;6192656;23;20155;-87
2022/11/19 09:50:20;;;;;;;5.07;2.40;;;0.50;99.90;;;;;;6215947;23;20024;-90
2022/11/19 09:52:56;;;;;;;4.60;1.95;;;0.60;99.90;;;;;;6188918;23;20008;-88
2022/11/19 09:55:37;;;;;;;5.07;2.47;;;0.60;99.90;;;;;;6216599;23;20083;-93
2022/11/19 09:58:15;;;;;;;5.82;2.30;;;0.70;99.90;;;;;;6190522;23;20011;-88
2022/11/19 10:00:43;;;;;;;4.72;2.28;;;0.70;99.90;;;;;;6215583;23;20502;-87
2022/11/19 10:03:18;;;;;;;4.63;2.28;;;0.80;99.90;;;;;;6215427;23;20087;-88
2022/11/19 10:05:49;;;;;;;2.67;1.98;;;0.80;99.90;;;;;;6215966;23;20012;-89
2022/11/19 10:08:44;;;;;;;3.53;1.65;;;0.90;99.90;;;;;;6215641;23;20020;-85
2022/11/19 10:11:12;;;;;;;2.38;1.52;;;0.90;99.90;;;;;;6215635;23;20023;-87
2022/11/19 10:13:56;;;;;;;6.30;2.20;;;0.90;99.90;;;;;;6215862;23;20017;-88
2022/11/19 10:16:34;;;;;;;5.90;2.80;;;1.00;99.90;;;;;;6215813;23;20017;-88
2022/11/19 10:19:37;;;;;;;5.88;2.10;;;1.10;99.90;;;;;;6189123;23;20016;-86
2022/11/19 10:22:03;;;;;;;5.85;1.73;;;1.10;99.90;;;;;;6215789;23;20017;-88
2022/11/19 10:24:56;;;;;;;4.13;2.25;;;2.20;99.90;;;;;;6215202;23;20048;-89
2022/11/19 10:27:37;;;;;;;5.60;1.75;;;1.20;99.90;;;;;;6065604;23;20466;-87
2022/11/19 10:30:11;;;;;;;4.32;2.13;;;1.20;99.90;;;;;;6065739;23;20023;-88
2022/11/19 10:32:44;;;;;;;4.63;2.38;;;1.20;99.90;;;;;;6065508;23;20015;-88
2022/11/19 10:35:21;;;;;;;5.95;2.30;;;1.30;99.90;;;;;;6065223;23;20019;-88
2022/11/19 10:38:08;;;;;;;4.63;1.90;;;1.30;99.90;;;;;;6065507;23;20022;-88
2022/11/19 10:40:43;;;;;;;3.10;1.50;;;1.30;99.90;;;;;;6065774;23;20025;-90
2022/11/19 10:43:33;;;;;;;5.00;2.10;;;1.40;99.90;;;;;;6065661;23;20067;-89
2022/11/19 10:46:01;;;;;;;3.78;1.88;;;1.50;99.90;;;;;;6042682;23;20470;-89
2022/11/19 10:48:42;;;;;;;4.40;2.10;;;1.50;99.90;;;;;;6043559;23;20019;-89
2022/11/19 10:51:39;;;;;;;3.38;1.83;;;1.60;99.90;;;;;;6043652;23;20021;-89
2022/11/19 10:54:17;;;;;;;5.72;2.35;;;1.60;99.90;;;;;;6043295;23;20026;-85
2022/11/19 10:56:43;;;;;;;3.97;1.55;;;1.60;99.90;;;;;;6043278;23;20015;-86
2022/11/19 10:59:17;;;;;;;5.88;2.22;;;1.70;99.90;;;;;;6067306;23;20049;-88
2022/11/19 11:01:45;;;;;;;6.07;2.20;;;1.70;99.90;;;;;;6067214;23;20501;-88
2022/11/19 11:04:14;;;;;;;3.75;1.83;;;1.80;99.90;;;;;;6125600;23;20021;-89
2022/11/19 11:06:53;;;;;;;6.43;2.33;;;1.80;99.90;;;;;;6217303;23;20474;-86
2022/11/19 11:09:39;;;;;;;4.78;2.38;;;1.80;99.90;;;;;;6217351;23;20013;-87
2022/11/19 11:15:20;;;;;;;4.75;2.55;;;1.90;99.90;;;;;;6218653;23;20040;-85
2022/11/19 11:17:48;;;;;;;5.28;1.90;;;1.90;99.90;;;;;;6218117;23;20490;-90
2022/11/19 11:20:16;;;;;;;5.93;2.25;;;2.20;99.90;;;;;;6218859;23;20016;-88
2022/11/19 11:22:44;;;;;;;7.35;3.03;;;2.00;99.90;;;;;;6220272;23;20064;-92
2022/11/19 11:25:25;;;;;;;7.93;2.53;;;2.10;99.90;;;;;;6217408;23;20020;-87
2022/11/19 11:28:11;;;;;;;3.80;2.10;;;2.10;99.90;;;;;;6217903;23;20021;-86
2022/11/19 11:30:49;;;;;;;22.85;21.23;;;2.20;99.90;;;;;;6190658;23;20486;-91
2022/11/19 11:33:31;;;;;;;34.20;32.15;;;2.60;99.90;;;;;;6217786;23;20432;-88
2022/11/19 11:36:19;;;;;;;4.97;2.00;;;3.00;99.90;;;;;;6217359;23;20012;-89
2022/11/19 11:38:48;;;;;;;44.50;42.25;;;3.20;99.90;;;;;;6190815;23;20028;-89
2022/11/19 11:41:20;;;;;;;46.03;43.67;;;2.20;99.90;;;;;;6219027;23;20375;-87
2022/11/19 11:44:01;;;;;;;62.05;58.72;;;2.00;99.90;;;;;;6217623;23;20331;-86
2022/11/19 11:46:49;;;;;;;13.27;12.35;;;2.30;99.90;;;;;;6217515;23;20051;-86
2022/11/19 11:49:29;;;;;;;11.48;10.75;;;2.40;99.90;;;;;;6219735;23;20048;-83
2022/11/19 11:52:18;;;;;;;29.17;26.83;;;2.40;99.90;;;;;;6217388;23;20363;-85
2022/11/19 11:55:02;;;;;;;11.23;10.43;;;2.50;99.90;;;;;;6215845;23;20031;-86
2022/11/19 11:57:31;;;;;;;28.25;24.52;;;2.60;99.90;;;;;;6190517;23;20051;-81
2022/11/19 11:59:58;;;;;;;20.38;18.90;;;2.60;99.90;;;;;;6217543;23;20012;-86
2022/11/19 12:02:31;;;;;;;13.02;11.32;;;2.80;99.90;;;;;;6216440;23;20103;-92
2022/11/19 12:05:09;;;;;;;164.30;151.85;;;2.80;99.90;;;;;;6190477;23;20020;-89
2022/11/19 12:08:01;;;;;;;78.35;70.72;;;2.90;99.90;;;;;;6216783;23;20023;-89
2022/11/19 12:11:01;;;;;;;38.38;35.15;;;3.00;99.90;;;;;;6216904;23;20020;-87
2022/11/19 12:13:32;;;;;;;7.15;6.13;;;3.00;99.90;;;;;;6216828;23;20435;-87
2022/11/19 12:16:10;;;;;;;51.65;47.60;;;3.00;99.90;;;;;;6217087;23;20017;-88
2022/11/19 12:19:17;;;;;;;4.70;4.05;;;3.00;99.90;;;;;;6217012;23;20091;-89
2022/11/19 12:22:14;;;;;;;7.68;6.68;;;3.00;99.90;;;;;;6216014;23;20071;-90
2022/11/19 12:24:56;;;;;;;14.77;13.90;;;3.20;99.90;;;;;;6217143;23;20309;-87
2022/11/19 12:27:31;;;;;;;13.38;12.20;;;3.10;99.90;;;;;;6216211;23;20091;-87
2022/11/19 12:30:04;;;;;;;22.95;21.50;;;3.40;99.90;;;;;;6216781;23;20017;-88
2022/11/19 12:33:14;;;;;;;71.65;66.95;;;3.20;99.90;;;;;;6216668;23;20021;-88
2022/11/19 12:36:10;;;;;;;64.25;60.78;;;3.20;99.90;;;;;;6042693;23;20022;-88
2022/11/19 12:39:01;;;;;;;15.87;14.90;;;3.20;99.90;;;;;;6066634;23;20097;-87
2022/11/19 12:41:41;;;;;;;176.07;165.50;;;3.30;99.90;;;;;;6066821;23;20254;-85
2022/11/19 12:44:33;;;;;;;31.73;29.98;;;3.30;99.90;;;;;;6066427;23;20069;-84
2022/11/19 12:47:12;;;;;;;89.70;84.15;;;3.30;99.90;;;;;;6066269;23;20054;-85
2022/11/19 12:50:01;;;;;;;61.80;57.92;;;3.20;99.90;;;;;;6042296;23;20025;-87
2022/11/19 12:52:34;;;;;;;135.13;126.88;;;3.20;99.90;;;;;;6042262;23;20023;-86
2022/11/19 12:55:15;;;;;;;154.88;141.40;;;3.10;99.90;;;;;;6066442;23;20355;-87
2022/11/19 12:58:09;;;;;;;134.40;124.60;;;3.20;99.90;;;;;;6064590;23;20021;-90
2022/11/19 13:00:38;;;;;;;99.22;93.65;;;3.00;99.90;;;;;;6065025;23;20019;-88
2022/11/19 13:03:11;;;;;;;65.47;61.58;;;3.00;99.90;;;;;;6042144;23;20107;-89
2022/11/19 13:05:59;;;;;;;142.55;133.75;;;2.90;99.90;;;;;;6065924;23;20066;-87
2022/11/19 13:08:38;;;;;;;31.90;30.23;;;2.90;99.90;;;;;;6066013;23;20096;-89
2022/11/19 13:11:24;;;;;;;47.50;44.65;;;2.90;99.90;;;;;;6072740;23;20015;-89
2022/11/19 13:14:01;;;;;;;;;;;2.90;99.90;;;;;;6216210;23;20017;-85
2022/11/19 13:16:29;;;;;;;19.13;17.90;;;2.90;99.90;;;;;;6188912;23;20323;-89
2022/11/19 13:19:17;;;;;;;93.03;88.38;;;3.00;99.90;;;;;;6216247;23;20021;-86
2022/11/19 13:21:54;;;;;;;73.72;67.78;;;3.70;99.90;;;;;;6189257;23;20028;-89
2022/11/19 13:24:35;;;;;;;100.32;93.25;;;3.10;99.90;;;;;;6225228;23;20103;-90
2022/11/19 13:27:10;;;;;;;9.48;8.65;;;3.10;99.90;;;;;;6215385;23;20027;-87
2022/11/19 13:29:49;;;;;;;22.25;20.88;;;4.10;99.90;;;;;;6165166;23;20447;-92